Time;durP1;ratioP1;P1;durP2;ratioP2;P2;SDS_P1;SDS_P2;PMS_P1;PMS_P2;Temp;Humidity;BMP_temperature;BMP_pressure;BME280_temperature;BME280_humidity;BME280_pressure;Samples;Min_cycle;Max_cycle;Signal;HPM_P1;HPM_P2
2024/02/27 00:00:28;;;;;;;;;;;;;;;3.63;100.00;101685.91;5080230;28;19920;-77
2024/02/27 00:02:53;;;;;;;;;;;;;;;3.61;100.00;101690.22;5079277;28;19981;-76
2024/02/27 00:05:19;;;;;;;;;;;;;;;3.62;100.00;101697.13;5084253;28;19955;-76
2024/02/27 00:07:44;;;;;;;;;;;;;;;3.59;100.00;101694.53;5073463;28;20132;-76
2024/02/27 00:10:10;;;;;;;;;;;;;;;3.53;100.00;101698.81;5078106;28;19986;-77
2024/02/27 00:12:36;;;;;;;;;;;;;;;3.58;100.00;101700.56;5074858;28;19924;-76
2024/02/27 00:15:03;;;;;;;;;;;;;;;3.58;100.00;101694.53;5075137;28;19928;-76
2024/02/27 00:17:28;;;;;;;;;;;;;;;3.57;100.00;101696.25;5085528;28;19923;-76
2024/02/27 00:19:53;;;;;;;;;;;;;;;3.58;100.00;101700.56;5084252;28;20272;-76
2024/02/27 00:22:19;;;;;;;;;;;;;;;3.56;100.00;101694.53;5057255;28;20360;-76
2024/02/27 00:24:44;;;;;;;;;;;;;;;3.56;100.00;101704.03;5074756;28;20108;-76
2024/02/27 00:27:10;;;;;;;;;;;;;;;3.56;100.00;101709.22;5078191;28;19920;-76
2024/02/27 00:29:35;;;;;;;;;;;;;;;3.51;100.00;101713.50;5079563;28;20097;-76
2024/02/27 00:32:00;;;;;;;;;;;;;;;3.50;100.00;101712.66;5075977;28;19920;-76
2024/02/27 00:34:25;;;;;;;;;;;;;;;3.49;100.00;101713.50;5075078;28;20330;-77
2024/02/27 00:36:51;;;;;;;;;;;;;;;3.45;100.00;101722.13;5078222;28;19924;-76
2024/02/27 00:39:16;;;;;;;;;;;;;;;3.41;100.00;101721.25;5075116;28;20218;-76
2024/02/27 00:41:41;;;;;;;;;;;;;;;3.44;100.00;101723.00;5056632;28;20277;-76
2024/02/27 00:44:07;;;;;;;;;;;;;;;3.49;100.00;101723.00;5074912;28;20136;-76
2024/02/27 00:46:36;;;;;;;;;;;;;;;3.46;100.00;101722.13;5080314;28;19927;-77
2024/02/27 00:49:01;;;;;;;;;;;;;;;3.42;100.00;101728.16;5093398;28;20313;-76
2024/02/27 00:51:26;;;;;;;;;;;;;;;3.43;100.00;101727.28;5076839;28;19943;-77
2024/02/27 00:53:51;;;;;;;;;;;;;;;3.42;100.00;101725.59;5057958;28;19932;-76
2024/02/27 00:56:17;;;;;;;;;;;;;;;3.41;100.00;101725.56;5076682;28;19993;-76
2024/02/27 00:58:42;;;;;;;;;;;;;;;3.47;100.00;101725.56;5093983;28;19921;-77
2024/02/27 01:01:08;;;;;;;;;;;;;;;3.46;100.00;101722.13;5077961;28;20163;-76
2024/02/27 01:03:33;;;;;;;;;;;;;;;3.42;100.00;101733.34;5074765;28;20104;-76
2024/02/27 01:05:58;;;;;;;;;;;;;;;3.43;100.00;101721.25;5072931;28;20211;-76
2024/02/27 01:08:23;;;;;;;;;;;;;;;3.35;100.00;101725.56;5073420;28;19973;-77
2024/02/27 01:10:48;;;;;;;;;;;;;;;3.35;100.00;101726.41;5077398;28;20380;-76
2024/02/27 01:13:14;;;;;;;;;;;;;;;3.33;100.00;101727.25;5074236;28;20143;-76
2024/02/27 01:15:39;;;;;;;;;;;;;;;3.29;100.00;101728.13;5081157;28;20262;-77
2024/02/27 01:18:04;;;;;;;;;;;;;;;3.30;100.00;101732.44;5085029;28;19920;-76
2024/02/27 01:20:29;;;;;;;;;;;;;;;3.31;100.00;101726.38;5074720;28;20208;-77
2024/02/27 01:22:55;;;;;;;;;;;;;;;3.28;100.00;101729.00;5074096;28;19920;-76
2024/02/27 01:25:20;;;;;;;;;;;;;;;3.17;100.00;101734.97;5074589;28;20105;-77
2024/02/27 01:27:45;;;;;;;;;;;;;;;3.20;100.00;101742.75;5080474;28;19912;-76
2024/02/27 01:30:11;;;;;;;;;;;;;;;3.20;100.00;101741.88;5080432;28;19920;-76
2024/02/27 01:32:36;;;;;;;;;;;;;;;3.20;100.00;101735.00;5077096;28;20183;-77
2024/02/27 01:35:01;;;;;;;;;;;;;;;3.13;100.00;101742.72;5080705;28;20194;-76
2024/02/27 01:37:26;;;;;;;;;;;;;;;3.12;100.00;101746.19;5077033;28;20172;-76
2024/02/27 01:39:52;;;;;;;;;;;;;;;3.05;100.00;101740.94;5077845;28;19920;-76
2024/02/27 01:42:17;;;;;;;;;;;;;;;3.02;100.00;101742.66;5076483;28;19960;-76
2024/02/27 01:44:46;;;;;;;;;;;;;;;3.01;100.00;101751.28;5078372;28;20145;-76
2024/02/27 01:47:11;;;;;;;;;;;;;;;2.99;100.00;101755.59;5083415;28;20240;-76
2024/02/27 01:49:37;;;;;;;;;;;;;;;2.94;100.00;101755.56;5079391;28;19928;-76
2024/02/27 01:52:02;;;;;;;;;;;;;;;2.93;100.00;101755.53;5077197;28;20314;-76
2024/02/27 01:54:28;;;;;;;;;;;;;;;2.93;100.00;101761.59;5077403;28;19982;-76
2024/02/27 01:56:56;;;;;;;;;;;;;;;2.96;100.00;101756.44;5058508;28;19956;-76
2024/02/27 01:59:22;;;;;;;;;;;;;;;2.95;100.00;101756.41;5077264;28;19921;-76
2024/02/27 02:01:48;;;;;;;;;;;;;;;2.95;100.00;101757.31;5076734;28;20158;-76
2024/02/27 02:04:15;;;;;;;;;;;;;;;2.97;100.00;101752.16;5076697;28;20085;-76
2024/02/27 02:06:41;;;;;;;;;;;;;;;2.94;100.00;101760.72;5076635;28;19966;-76
2024/02/27 02:09:06;;;;;;;;;;;;;;;2.94;100.00;101763.31;5081011;28;19920;-76
2024/02/27 02:11:31;;;;;;;;;;;;;;;2.98;100.00;101761.63;5081034;28;19916;-75
2024/02/27 02:13:57;;;;;;;;;;;;;;;2.92;100.00;101757.28;5076353;28;19924;-76
2024/02/27 02:16:22;;;;;;;;;;;;;;;2.86;100.00;101757.25;5077850;28;19924;-76
2024/02/27 02:18:47;;;;;;;;;;;;;;;2.81;100.00;101759.81;5076310;28;19957;-76
2024/02/27 02:21:13;;;;;;;;;;;;;;;2.83;100.00;101762.41;5077558;28;19974;-76
2024/02/27 02:23:38;;;;;;;;;;;;;;;2.78;100.00;101757.19;5076546;28;20119;-76
2024/02/27 02:26:03;;;;;;;;;;;;;;;2.77;100.00;101765.81;5075772;28;20022;-76
2024/02/27 02:28:29;;;;;;;;;;;;;;;2.81;100.00;101767.56;5077870;28;19920;-76
2024/02/27 02:30:54;;;;;;;;;;;;;;;2.79;100.00;101777.03;5076738;28;20418;-75
2024/02/27 02:33:19;;;;;;;;;;;;;;;2.81;100.00;101771.88;5076249;28;20214;-76
2024/02/27 02:35:44;;;;;;;;;;;;;;;2.78;100.00;101788.22;5076048;28;19924;-76
2024/02/27 02:38:10;;;;;;;;;;;;;;;2.80;100.00;101783.06;5077208;28;19962;-76
2024/02/27 02:40:35;;;;;;;;;;;;;;;2.79;100.00;101782.22;5081729;28;19943;-76
2024/02/27 02:43:01;;;;;;;;;;;;;;;2.84;100.00;101777.09;5075577;28;19931;-75
2024/02/27 02:45:27;;;;;;;;;;;;;;;2.83;100.00;101781.38;5076038;28;20359;-76
2024/02/27 02:47:52;;;;;;;;;;;;;;;2.84;100.00;101777.94;5076237;28;20223;-75
2024/02/27 02:50:17;;;;;;;;;;;;;;;2.87;100.00;101772.78;5078762;28;19926;-76
2024/02/27 02:52:46;;;;;;;;;;;;;;;2.89;100.00;101767.59;5075613;28;19920;-76
2024/02/27 02:55:14;;;;;;;;;;;;;;;2.82;100.00;101771.00;5073845;28;19987;-76
2024/02/27 02:57:39;;;;;;;;;;;;;;;2.81;100.00;101770.16;5073128;28;19920;-76
2024/02/27 03:00:05;;;;;;;;;;;;;;;2.84;100.00;101769.31;5079988;28;19921;-76
2024/02/27 03:02:31;;;;;;;;;;;;;;;2.75;100.00;101767.53;5079596;28;20189;-76
2024/02/27 03:04:56;;;;;;;;;;;;;;;2.80;100.00;101760.69;5075142;28;19921;-76
2024/02/27 03:07:21;;;;;;;;;;;;;;;2.84;100.00;101758.97;5075631;28;19916;-76
2024/02/27 03:09:46;;;;;;;;;;;;;;;2.80;100.00;101767.53;5075556;28;19924;-76
2024/02/27 03:12:12;;;;;;;;;;;;;;;2.90;100.00;101773.66;5074914;28;20154;-76
2024/02/27 03:14:42;;;;;;;;;;;;;;;2.92;100.00;101775.38;5080442;28;20156;-76
2024/02/27 03:17:08;;;;;;;;;;;;;;;2.93;100.00;101781.41;5075911;28;19943;-76
2024/02/27 03:19:34;;;;;;;;;;;;;;;2.88;100.00;101778.81;5065263;28;19951;-76
2024/02/27 03:21:59;;;;;;;;;;;;;;;2.80;100.00;101778.78;5075352;28;20166;-76
2024/02/27 03:24:24;;;;;;;;;;;;;;;2.84;100.00;101771.91;5075508;28;19952;-76
2024/02/27 03:26:49;;;;;;;;;;;;;;;2.82;100.00;101771.00;5075307;28;19921;-76
2024/02/27 03:29:15;;;;;;;;;;;;;;;2.76;100.00;101776.16;5079497;28;19920;-76
2024/02/27 03:31:40;;;;;;;;;;;;;;;2.74;100.00;101783.91;5074193;28;19920;-76
2024/02/27 03:34:05;;;;;;;;;;;;;;;2.73;100.00;101782.19;5077622;28;19924;-76
2024/02/27 03:36:30;;;;;;;;;;;;;;;2.72;100.00;101782.16;5075186;28;19943;-76
2024/02/27 03:38:56;;;;;;;;;;;;;;;2.73;100.00;101795.13;5074853;28;19924;-76
2024/02/27 03:41:21;;;;;;;;;;;;;;;2.69;100.00;101793.34;5077019;28;20234;-76
2024/02/27 03:43:46;;;;;;;;;;;;;;;2.79;100.00;101802.91;5076876;28;20033;-76
2024/02/27 03:46:11;;;;;;;;;;;;;;;2.74;100.00;101804.59;5077231;28;20119;-76
2024/02/27 03:48:36;;;;;;;;;;;;;;;2.70;100.00;101805.44;5078267;28;19978;-76
2024/02/27 03:51:02;;;;;;;;;;;;;;;2.67;100.00;101808.88;5080017;28;20127;-76
2024/02/27 03:53:28;;;;;;;;;;;;;;;2.65;100.00;101814.88;5073636;28;20218;-76
2024/02/27 03:55:53;;;;;;;;;;;;;;;2.66;100.00;101806.28;5078480;28;19924;-76
2024/02/27 03:58:18;;;;;;;;;;;;;;;2.63;100.00;101811.41;5056942;28;19920;-76
2024/02/27 04:00:44;;;;;;;;;;;;;;;2.59;100.00;101814.84;5079340;28;19920;-76
2024/02/27 04:03:09;;;;;;;;;;;;;;;2.61;100.00;101811.41;5074835;28;19952;-76
2024/02/27 04:05:34;;;;;;;;;;;;;;;2.69;100.00;101816.63;5076660;28;19920;-76
2024/02/27 04:07:59;;;;;;;;;;;;;;;2.73;100.00;101823.56;5074750;28;19920;-76
2024/02/27 04:10:24;;;;;;;;;;;;;;;2.67;100.00;101823.50;5073917;28;19986;-75
2024/02/27 04:12:50;;;;;;;;;;;;;;;2.70;100.00;101826.13;5075118;28;19955;-76
2024/02/27 04:15:15;;;;;;;;;;;;;;;2.76;100.00;101833.06;5073894;28;20211;-76
2024/02/27 04:17:40;;;;;;;;;;;;;;;2.65;100.00;101831.25;5075326;28;20010;-76
2024/02/27 04:20:06;;;;;;;;;;;;;;;2.64;100.00;101839.03;5073703;28;20239;-76
2024/02/27 04:22:31;;;;;;;;;;;;;;;2.59;100.00;101836.38;5074413;28;19920;-76
2024/02/27 04:24:56;;;;;;;;;;;;;;;2.64;100.00;101845.06;5074562;28;20262;-76
2024/02/27 04:27:21;;;;;;;;;;;;;;;2.63;100.00;101847.63;5077420;28;19950;-76
2024/02/27 04:29:47;;;;;;;;;;;;;;;2.63;100.00;101850.22;5057465;28;19927;-76
2024/02/27 04:32:13;;;;;;;;;;;;;;;2.65;100.00;101851.09;5073883;28;20393;-76
2024/02/27 04:34:40;;;;;;;;;;;;;;;2.61;100.00;101865.72;5056576;28;19912;-76
2024/02/27 04:37:05;;;;;;;;;;;;;;;2.64;100.00;101864.88;5081789;28;20287;-76
2024/02/27 04:39:31;;;;;;;;;;;;;;;2.58;100.00;101867.41;5077689;28;19916;-76
2024/02/27 04:41:56;;;;;;;;;;;;;;;2.59;100.00;101869.16;5073679;28;19925;-76
2024/02/27 04:44:21;;;;;;;;;;;;;;;2.59;100.00;101871.72;5073865;28;19977;-76
2024/02/27 04:46:46;;;;;;;;;;;;;;;2.60;100.00;101871.75;5076922;28;20004;-76
2024/02/27 04:49:11;;;;;;;;;;;;;;;2.67;100.00;101870.94;5073254;28;19977;-76
2024/02/27 04:51:37;;;;;;;;;;;;;;;2.63;100.00;101876.94;5074828;28;19920;-76
2024/02/27 04:54:02;;;;;;;;;;;;;;;2.66;100.00;101878.69;5073375;28;19927;-76
2024/02/27 04:56:27;;;;;;;;;;;;;;;2.69;100.00;101873.53;5075520;28;19942;-76
2024/02/27 04:58:53;;;;;;;;;;;;;;;2.73;100.00;101880.47;5073504;28;20228;-76
2024/02/27 05:01:18;;;;;;;;;;;;;;;2.74;100.00;101882.19;5076808;28;19920;-76
2024/02/27 05:03:43;;;;;;;;;;;;;;;2.65;100.00;101877.81;5077615;28;19927;-76
2024/02/27 05:06:09;;;;;;;;;;;;;;;2.67;100.00;101880.41;5076291;28;19982;-76
2024/02/27 05:08:34;;;;;;;;;;;;;;;2.68;100.00;101887.34;5077665;28;20219;-76
2024/02/27 05:11:00;;;;;;;;;;;;;;;2.67;100.00;101888.16;5077206;28;19931;-76
2024/02/27 05:13:25;;;;;;;;;;;;;;;2.69;100.00;101889.94;5077924;28;19940;-76
2024/02/27 05:15:51;;;;;;;;;;;;;;;2.73;100.00;101892.53;5077027;28;20377;-76
2024/02/27 05:18:16;;;;;;;;;;;;;;;2.68;100.00;101901.13;5082420;28;20129;-76
2024/02/27 05:20:41;;;;;;;;;;;;;;;2.73;100.00;101895.13;5081981;28;19928;-76
2024/02/27 05:23:07;;;;;;;;;;;;;;;2.72;100.00;101894.25;5076626;28;19921;-76
2024/02/27 05:25:32;;;;;;;;;;;;;;;2.71;100.00;101897.72;5077167;28;19916;-76
2024/02/27 05:27:57;;;;;;;;;;;;;;;2.64;100.00;101896.78;5077105;28;19927;-76
2024/02/27 05:30:23;;;;;;;;;;;;;;;2.68;100.00;101900.25;5077872;28;19920;-76
2024/02/27 05:32:48;;;;;;;;;;;;;;;2.67;100.00;101895.94;5068259;28;20319;-76
2024/02/27 05:35:13;;;;;;;;;;;;;;;2.73;100.00;101890.84;5074663;28;19960;-76
2024/02/27 05:37:38;;;;;;;;;;;;;;;2.76;100.00;101890.84;5077209;28;20267;-76
2024/02/27 05:40:08;;;;;;;;;;;;;;;2.76;100.00;101885.66;5076849;28;20250;-76
2024/02/27 05:42:33;;;;;;;;;;;;;;;2.65;100.00;101884.72;5077859;28;19924;-76
2024/02/27 05:44:58;;;;;;;;;;;;;;;2.69;100.00;101883.88;5076758;28;19975;-76
2024/02/27 05:47:24;;;;;;;;;;;;;;;2.68;100.00;101889.91;5079900;28;20167;-76
2024/02/27 05:49:49;;;;;;;;;;;;;;;2.67;100.00;101888.16;5076332;28;20360;-76
2024/02/27 05:52:14;;;;;;;;;;;;;;;2.70;100.00;101880.44;5077294;28;20147;-76
2024/02/27 05:54:39;;;;;;;;;;;;;;;2.65;100.00;101876.94;5076677;28;20127;-76
2024/02/27 05:57:05;;;;;;;;;;;;;;;2.62;100.00;101876.91;5076107;28;20131;-76
2024/02/27 05:59:30;;;;;;;;;;;;;;;2.63;100.00;101874.34;5077291;28;19924;-76
2024/02/27 06:01:56;;;;;;;;;;;;;;;2.69;100.00;101873.53;5076661;28;19974;-76
2024/02/27 06:04:21;;;;;;;;;;;;;;;2.65;100.00;101871.78;5076348;28;19913;-76
2024/02/27 06:06:46;;;;;;;;;;;;;;;2.63;100.00;101870.91;5076537;28;20173;-76
2024/02/27 06:09:12;;;;;;;;;;;;;;;2.59;100.00;101875.19;5074550;28;19920;-76
2024/02/27 06:11:37;;;;;;;;;;;;;;;2.54;100.00;101869.09;5076617;28;19920;-76
2024/02/27 06:14:02;;;;;;;;;;;;;;;2.50;100.00;101865.59;5083187;28;20215;-76
2024/02/27 06:16:28;;;;;;;;;;;;;;;2.53;100.00;101869.97;5078012;28;19932;-76
2024/02/27 06:18:55;;;;;;;;;;;;;;;2.52;100.00;101875.13;5078693;28;19983;-76
2024/02/27 06:24:04;;;;;;;;;;;;;;;2.54;100.00;101881.16;5076840;28;19926;-76
2024/02/27 06:26:29;;;;;;;;;;;;;;;2.56;100.00;101888.06;5075996;28;20194;-76
2024/02/27 06:28:55;;;;;;;;;;;;;;;2.55;100.00;101883.78;5077618;28;19920;-76
2024/02/27 06:31:20;;;;;;;;;;;;;;;2.52;100.00;101885.47;5076993;28;20289;-76
2024/02/27 06:33:45;;;;;;;;;;;;;;;2.45;100.00;101892.28;5077171;28;19925;-76
2024/02/27 06:36:11;;;;;;;;;;;;;;;2.48;100.00;101902.66;5075516;28;19936;-76
2024/02/27 06:38:37;;;;;;;;;;;;;;;2.53;100.00;101905.28;5077309;28;19951;-76
2024/02/27 06:41:02;;;;;;;;;;;;;;;2.50;100.00;101917.31;5063352;28;19923;-76
2024/02/27 06:43:28;;;;;;;;;;;;;;;2.46;100.00;101919.88;5078125;28;20259;-76
2024/02/27 06:45:54;;;;;;;;;;;;;;;2.44;100.00;101919.88;5076506;28;19927;-76
2024/02/27 06:48:19;;;;;;;;;;;;;;;2.40;100.00;101923.28;5076996;28;19916;-76
2024/02/27 06:50:45;;;;;;;;;;;;;;;2.39;100.00;101925.84;5075733;28;19920;-76
2024/02/27 06:53:10;;;;;;;;;;;;;;;2.41;100.00;101931.91;5078576;28;20039;-76
2024/02/27 06:55:35;;;;;;;;;;;;;;;2.36;100.00;101930.97;5075177;28;19932;-76
2024/02/27 06:58:00;;;;;;;;;;;;;;;2.44;100.00;101934.53;5075879;28;19983;-76
2024/02/27 07:00:25;;;;;;;;;;;;;;;2.49;100.00;101938.88;5077093;28;19951;-76
2024/02/27 07:02:51;;;;;;;;;;;;;;;2.50;100.00;101938.00;5074290;28;19921;-75
2024/02/27 07:05:16;;;;;;;;;;;;;;;2.57;100.00;101938.09;5074049;28;20185;-76
2024/02/27 07:07:42;;;;;;;;;;;;;;;2.56;100.00;101947.56;5074337;28;19924;-76
2024/02/27 07:10:07;;;;;;;;;;;;;;;2.52;100.00;101945.78;5074781;28;20066;-76
2024/02/27 07:12:33;;;;;;;;;;;;;;;2.60;100.00;101951.94;5074987;28;19920;-76
2024/02/27 07:14:59;;;;;;;;;;;;;;;2.63;100.00;101951.06;5074075;28;19920;-76
2024/02/27 07:17:24;;;;;;;;;;;;;;;2.61;100.00;101952.78;5074793;28;19939;-76
2024/02/27 07:19:51;;;;;;;;;;;;;;;2.60;100.00;101954.50;5074411;28;19917;-75
2024/02/27 07:22:16;;;;;;;;;;;;;;;2.67;100.00;101958.91;5076424;28;20291;-75
2024/02/27 07:24:43;;;;;;;;;;;;;;;2.73;100.00;101965.84;5079231;28;20085;-75
2024/02/27 07:27:08;;;;;;;;;;;;;;;2.77;100.00;101964.16;5074308;28;19951;-75
2024/02/27 07:29:34;;;;;;;;;;;;;;;2.77;100.00;101959.84;5072653;28;20041;-75
2024/02/27 07:32:00;;;;;;;;;;;;;;;2.73;100.00;101968.44;5073161;28;19943;-75
2024/02/27 07:34:25;;;;;;;;;;;;;;;2.82;100.00;101976.28;5078717;28;19928;-75
2024/02/27 07:36:51;;;;;;;;;;;;;;;2.80;100.00;101980.59;5075037;28;19921;-75
2024/02/27 07:39:16;;;;;;;;;;;;;;;2.85;100.00;101978.03;5074527;28;19920;-75
2024/02/27 07:41:42;;;;;;;;;;;;;;;2.89;100.00;101984.94;5074278;28;19926;-75
2024/02/27 07:44:08;;;;;;;;;;;;;;;2.89;100.00;101982.38;5084164;28;20111;-75
2024/02/27 07:46:34;;;;;;;;;;;;;;;2.86;100.00;101977.19;5076514;28;20168;-75
2024/02/27 07:48:59;;;;;;;;;;;;;;;2.87;100.00;101976.31;5074614;28;19924;-75
2024/02/27 07:51:28;;;;;;;;;;;;;;;2.89;100.00;101972.00;5074475;28;19944;-75
2024/02/27 07:53:53;;;;;;;;;;;;;;;2.92;100.00;101971.19;5074836;28;19920;-75
2024/02/27 07:56:19;;;;;;;;;;;;;;;3.02;100.00;101970.41;5072717;28;19926;-75
2024/02/27 07:58:44;;;;;;;;;;;;;;;3.11;100.00;101969.63;5072494;28;19912;-75
2024/02/27 08:01:09;;;;;;;;;;;;;;;3.11;100.00;101961.84;5072388;28;19928;-75
2024/02/27 08:03:36;;;;;;;;;;;;;;;3.15;100.00;101968.81;5072634;28;20013;-75
2024/02/27 08:06:02;;;;;;;;;;;;;;;3.17;100.00;101973.13;5073816;28;19920;-75
2024/02/27 08:08:28;;;;;;;;;;;;;;;3.25;100.00;101971.47;5074672;28;20235;-75
2024/02/27 08:10:55;;;;;;;;;;;;;;;3.36;100.00;101970.69;5073565;28;20093;-75
2024/02/27 08:13:20;;;;;;;;;;;;;;;3.43;100.00;101964.69;5076561;28;19914;-75
2024/02/27 08:15:46;;;;;;;;;;;;;;;3.40;100.00;101968.13;5074035;28;20000;-75
2024/02/27 08:18:11;;;;;;;;;;;;;;;3.46;100.00;101967.31;5076097;28;20494;-75
2024/02/27 08:20:36;;;;;;;;;;;;;;;3.53;100.00;101971.69;5059143;28;20012;-75
2024/02/27 08:23:01;;;;;;;;;;;;;;;3.57;100.00;101970.84;5075139;28;20363;-75
2024/02/27 08:25:28;;;;;;;;;;;;;;;3.55;100.00;101971.69;5071616;28;19984;-75
2024/02/27 08:27:53;;;;;;;;;;;;;;;3.61;100.00;101977.75;5072221;28;19920;-75
2024/02/27 08:30:19;;;;;;;;;;;;;;;3.65;100.00;101979.50;5072158;28;19920;-75
2024/02/27 08:32:44;;;;;;;;;;;;;;;3.69;100.00;101971.75;5073173;28;19951;-75
2024/02/27 08:35:09;;;;;;;;;;;;;;;3.79;100.00;101973.56;5072221;28;19939;-75
2024/02/27 08:37:34;;;;;;;;;;;;;;;3.80;100.00;101978.75;5075262;28;19916;-75
2024/02/27 08:40:00;;;;;;;;;;;;;;;3.88;100.00;101980.53;5057472;28;20200;-75
2024/02/27 08:42:26;;;;;;;;;;;;;;;3.89;100.00;101982.25;5057336;28;19952;-75
2024/02/27 08:44:51;;;;;;;;;;;;;;;3.92;100.00;101977.94;5055780;28;19939;-75
2024/02/27 08:47:16;;;;;;;;;;;;;;;4.03;100.00;101983.19;5059778;28;20314;-75
2024/02/27 08:49:41;;;;;;;;;;;;;;;4.09;100.00;101984.94;5068294;28;20012;-75
2024/02/27 08:52:07;;;;;;;;;;;;;;;4.05;100.00;101986.63;5069305;28;19951;-75
2024/02/27 08:54:32;;;;;;;;;;;;;;;4.06;100.00;101985.78;5050346;28;19970;-75
2024/02/27 08:56:57;;;;;;;;;;;;;;;4.09;100.00;101985.78;5068404;28;20008;-75
2024/02/27 08:59:23;;;;;;;;;;;;;;;4.08;100.00;101989.25;5069488;28;19917;-75
2024/02/27 09:01:48;;;;;;;;;;;;;;;4.11;100.00;101988.38;5069798;28;20222;-75
2024/02/27 09:04:14;;;;;;;;;;;;;;;4.13;100.00;101987.56;5064710;28;19924;-75
2024/02/27 09:06:42;;;;;;;;;;;;;;;4.23;100.00;101986.72;5068589;28;19943;-75
2024/02/27 09:09:08;;;;;;;;;;;;;;;4.30;100.00;101981.56;5068858;28;20000;-75
2024/02/27 09:11:33;;;;;;;;;;;;;;;4.33;100.00;101992.81;5066172;28;19928;-75
2024/02/27 09:13:59;;;;;;;;;;;;;;;4.40;100.00;101994.56;5059980;28;20191;-75
2024/02/27 09:16:24;;;;;;;;;;;;;;;4.33;100.00;101999.72;5035207;28;19963;-76
2024/02/27 09:18:50;;;;;;;;;;;;;;;4.34;100.00;101994.53;5057117;28;19921;-75
2024/02/27 09:21:15;;;;;;;;;;;;;;;4.41;100.00;101998.88;5057004;28;19921;-75
2024/02/27 09:23:40;;;;;;;;;;;;;;;4.52;100.00;101998.94;5056765;28;19925;-75
2024/02/27 09:26:05;;;;;;;;;;;;;;;4.55;100.00;101998.94;5058894;28;19919;-76
2024/02/27 09:28:31;;;;;;;;;;;;;;;4.55;100.00;101998.09;5055415;28;19988;-75
2024/02/27 09:30:56;;;;;;;;;;;;;;;4.52;100.00;101996.34;5056581;28;20162;-75
2024/02/27 09:33:21;;;;;;;;;;;;;;;4.51;100.00;102005.00;5056858;28;20027;-75
2024/02/27 09:35:46;;;;;;;;;;;;;;;4.56;100.00;101999.81;5058670;28;19925;-75
2024/02/27 09:38:12;;;;;;;;;;;;;;;4.61;100.00;102003.28;5057755;28;19928;-75
2024/02/27 09:40:38;;;;;;;;;;;;;;;4.66;100.00;101998.09;5057906;28;19978;-76
2024/02/27 09:43:07;;;;;;;;;;;;;;;4.77;100.00;102002.44;5064392;28;19974;-76
2024/02/27 09:45:32;;;;;;;;;;;;;;;4.91;100.00;101997.28;5057247;28;19927;-75
2024/02/27 09:48:00;;;;;;;;;;;;;;;5.02;100.00;101991.22;5062431;28;19912;-75
2024/02/27 09:50:27;;;;;;;;;;;;;;;5.11;100.00;101992.13;5068035;28;20211;-75
2024/02/27 09:52:54;;;;;;;;;;;;;;;5.18;100.00;101988.66;5069621;28;19953;-75
2024/02/27 09:55:20;;;;;;;;;;;;;;;5.21;100.00;101987.78;5071648;28;19932;-75
2024/02/27 09:57:48;;;;;;;;;;;;;;;5.28;100.00;101979.13;5071229;28;19920;-75
2024/02/27 10:00:15;;;;;;;;;;;;;;;5.24;100.00;101982.59;5051254;28;19920;-75
2024/02/27 10:02:40;;;;;;;;;;;;;;;5.23;100.00;101987.78;5071235;28;19920;-76
2024/02/27 10:05:06;;;;;;;;;;;;;;;5.34;100.00;101984.31;5065851;28;19920;-76
2024/02/27 10:07:33;;;;;;;;;;;;;;;5.38;100.00;101993.84;5068697;28;19920;-75
2024/02/27 10:09:58;;;;;;;;;;;;;;;5.40;100.00;101999.03;5068318;28;19921;-75
2024/02/27 10:12:24;;;;;;;;;;;;;;;5.43;100.00;101988.63;5072756;28;20104;-75
2024/02/27 10:14:50;;;;;;;;;;;;;;;5.41;100.00;101994.72;5071351;28;19925;-75
2024/02/27 10:17:15;;;;;;;;;;;;;;;5.32;100.00;101992.97;5064826;28;19962;-75
2024/02/27 10:19:41;;;;;;;;;;;;;;;5.26;100.00;101980.00;5072051;28;19920;-75
2024/02/27 10:22:06;;;;;;;;;;;;;;;5.35;100.00;101985.19;5070650;28;19979;-75
2024/02/27 10:24:32;;;;;;;;;;;;;;;5.34;100.00;101983.44;5071394;28;19931;-75
2024/02/27 10:26:58;;;;;;;;;;;;;;;5.31;100.00;101980.84;5070177;28;19967;-75
2024/02/27 10:29:24;;;;;;;;;;;;;;;5.36;100.00;101979.13;5058959;28;20198;-76
2024/02/27 10:31:50;;;;;;;;;;;;;;;5.41;100.00;101979.13;5058716;28;20051;-75
2024/02/27 10:34:15;;;;;;;;;;;;;;;5.54;100.00;101975.63;5052498;28;19925;-75
2024/02/27 10:36:41;;;;;;;;;;;;;;;5.57;100.00;101973.91;5057122;28;19920;-75
2024/02/27 10:39:07;;;;;;;;;;;;;;;5.63;100.00;101974.75;5056178;28;20155;-75
2024/02/27 10:41:32;;;;;;;;;;;;;;;5.60;100.00;101972.16;5058600;28;20213;-75
2024/02/27 10:43:58;;;;;;;;;;;;;;;5.64;100.00;101979.06;5058569;28;19927;-76
2024/02/27 10:46:23;;;;;;;;;;;;;;;5.63;100.00;101975.63;5065120;28;19927;-76
2024/02/27 10:48:49;;;;;;;;;;;;;;;5.70;100.00;101979.06;5072689;28;19985;-76
2024/02/27 10:51:14;;;;;;;;;;;;;;;5.71;100.00;101983.38;5071277;28;19920;-76
2024/02/27 10:53:41;;;;;;;;;;;;;;;5.76;100.00;101973.84;5068350;28;19951;-76
2024/02/27 10:56:06;;;;;;;;;;;;;;;5.79;100.00;101983.41;5072356;28;19924;-76
2024/02/27 10:58:34;;;;;;;;;;;;;;;5.87;100.00;101979.88;5073808;28;20162;-76
2024/02/27 11:00:59;;;;;;;;;;;;;;;5.90;100.00;101986.81;5071871;28;19940;-76
2024/02/27 11:03:26;;;;;;;;;;;;;;;5.95;100.00;101977.28;5070847;28;19991;-76
2024/02/27 11:05:51;;;;;;;;;;;;;;;5.98;100.00;101981.63;5071450;28;19924;-76
2024/02/27 11:08:16;;;;;;;;;;;;;;;6.02;100.00;101979.03;5070404;28;20037;-76
2024/02/27 11:10:42;;;;;;;;;;;;;;;5.96;100.00;101981.63;5072727;28;19920;-75
2024/02/27 11:13:08;;;;;;;;;;;;;;;6.01;100.00;101982.47;5053479;28;19952;-75
2024/02/27 11:15:34;;;;;;;;;;;;;;;6.02;100.00;101979.03;5054261;28;19959;-75
2024/02/27 11:18:01;;;;;;;;;;;;;;;6.02;100.00;101973.81;5071453;28;19920;-75
2024/02/27 11:20:27;;;;;;;;;;;;;;;6.01;100.00;101976.44;5071190;28;19924;-75
2024/02/27 11:22:53;;;;;;;;;;;;;;;6.06;100.00;101977.28;5071503;28;20040;-75
2024/02/27 11:25:20;;;;;;;;;;;;;;;6.02;100.00;101967.72;5072474;28;19977;-75
2024/02/27 11:27:46;;;;;;;;;;;;;;;6.08;100.00;101971.19;5071398;28;19999;-75
2024/02/27 11:30:12;;;;;;;;;;;;;;;6.10;100.00;101972.03;5071481;28;19920;-75
2024/02/27 11:32:37;;;;;;;;;;;;;;;6.13;100.00;101974.63;5071913;28;19956;-75
2024/02/27 11:35:03;;;;;;;;;;;;;;;6.13;99.63;101973.75;5067709;28;20152;-75
2024/02/27 11:37:28;;;;;;;;;;;;;;;6.18;100.00;101972.00;5068363;28;19947;-75
2024/02/27 11:39:54;;;;;;;;;;;;;;;6.20;100.00;101962.44;5071841;28;19982;-75
2024/02/27 11:42:19;;;;;;;;;;;;;;;6.23;100.00;101967.66;5068280;28;19967;-75
2024/02/27 11:45:03;;;;;;;;;;;;;;;6.23;100.00;101967.66;5069268;28;20000;-75
2024/02/27 11:47:35;;;;;;;;;;;;;;;6.30;100.00;101960.69;5069804;28;20221;-75
2024/02/27 11:50:00;;;;;;;;;;;;;;;6.34;100.00;101952.84;5069423;28;20266;-75
2024/02/27 11:52:27;;;;;;;;;;;;;;;6.39;100.00;101950.22;5069676;28;19913;-75
2024/02/27 11:54:55;;;;;;;;;;;;;;;6.37;99.92;101948.50;5071855;28;19924;-75
2024/02/27 11:57:21;;;;;;;;;;;;;;;6.33;99.39;101942.44;5067295;28;19928;-75
2024/02/27 11:59:46;;;;;;;;;;;;;;;6.25;99.60;101934.69;5070784;28;19935;-75
2024/02/27 12:02:17;;;;;;;;;;;;;;;6.22;99.58;101934.72;5071214;28;19921;-75
2024/02/27 12:04:43;;;;;;;;;;;;;;;6.25;99.03;101939.88;5075604;28;20259;-75
2024/02/27 12:07:09;;;;;;;;;;;;;;;6.22;96.17;101939.94;5074649;28;19916;-75
2024/02/27 12:09:34;;;;;;;;;;;;;;;6.25;96.96;101942.50;5091095;28;19931;-75
2024/02/27 12:11:59;;;;;;;;;;;;;;;6.23;96.16;101940.78;5070611;28;19923;-75
2024/02/27 12:14:24;;;;;;;;;;;;;;;6.21;95.65;101937.31;5050133;28;19975;-75
2024/02/27 12:16:50;;;;;;;;;;;;;;;6.21;96.13;101929.53;5077365;28;19927;-75
2024/02/27 12:19:15;;;;;;;;;;;;;;;6.27;96.21;101932.94;5073916;28;19982;-76
2024/02/27 12:21:41;;;;;;;;;;;;;;;6.26;95.33;101944.22;5074222;28;19920;-76
2024/02/27 12:24:13;;;;;;;;;;;;;;;6.24;93.99;101929.47;5074392;28;19952;-76
2024/02/27 12:26:39;;;;;;;;;;;;;;;6.27;94.46;101939.88;5078081;28;19927;-76
2024/02/27 12:29:05;;;;;;;;;;;;;;;6.27;94.27;101934.69;5072916;28;19999;-76
2024/02/27 12:31:31;;;;;;;;;;;;;;;6.31;94.81;101932.06;5057174;28;19920;-76